createdAt,value
2019-01-02T00:00:38.621Z,1018.26
2019-01-02T00:01:38.884Z,1018.24
2019-01-02T00:02:39.710Z,1018.23
2019-01-02T00:03:39.729Z,1018.27
2019-01-02T00:04:39.638Z,1018.22
2019-01-02T00:05:39.927Z,1018.15
2019-01-02T00:06:40.585Z,1018.18
2019-01-02T00:07:40.479Z,1018.27
2019-01-02T00:08:41.176Z,1018.25
2019-01-02T00:09:42.102Z,1018.20
2019-01-02T00:10:41.543Z,1018.30
2019-01-02T00:11:42.145Z,1018.28
2019-01-02T00:12:42.326Z,1018.35
2019-01-02T00:13:42.187Z,1018.33
2019-01-02T00:14:42.499Z,1018.43
2019-01-02T00:15:43.094Z,1018.38
2019-01-02T00:16:43.091Z,1018.36
2019-01-02T00:17:42.858Z,1018.30
2019-01-02T00:18:43.228Z,1018.22
2019-01-02T00:19:43.694Z,1018.26
2019-01-02T00:20:44.045Z,1018.17
2019-01-02T00:21:44.338Z,1018.23
2019-01-02T00:22:44.631Z,1018.26
2019-01-02T00:23:45.269Z,1018.21
2019-01-02T00:24:45.483Z,1018.21
2019-01-02T00:25:45.327Z,1018.20
2019-01-02T00:26:45.732Z,1018.15
2019-01-02T00:27:45.683Z,1018.20
2019-01-02T00:29:45.983Z,1018.28
2019-01-02T00:30:46.396Z,1018.25
2019-01-02T00:31:46.809Z,1018.28
2019-01-02T00:32:47.332Z,1018.38
2019-01-02T00:33:47.134Z,1018.40
2019-01-02T00:34:47.433Z,1018.35
2019-01-02T00:35:47.836Z,1018.37
2019-01-02T00:36:48.938Z,1018.31
2019-01-02T00:37:49.255Z,1018.29
2019-01-02T00:38:49.670Z,1018.22
2019-01-02T00:39:49.888Z,1018.26
2019-01-02T00:41:50.403Z,1018.30
2019-01-02T00:42:50.824Z,1018.38
2019-01-02T00:43:50.993Z,1018.47
2019-01-02T00:44:51.149Z,1018.53
2019-01-02T00:45:51.355Z,1018.49
2019-01-02T00:46:51.575Z,1018.51
2019-01-02T00:47:51.136Z,1018.54
2019-01-02T00:48:51.186Z,1018.51
2019-01-02T00:49:51.242Z,1018.48
2019-01-02T00:50:51.285Z,1018.47
2019-01-02T00:51:51.319Z,1018.52
2019-01-02T00:52:51.425Z,1018.51
2019-01-02T00:53:51.517Z,1018.55
2019-01-02T00:54:51.606Z,1018.49
2019-01-02T00:55:51.731Z,1018.57
2019-01-02T00:56:51.944Z,1018.62
2019-01-02T00:57:52.125Z,1018.66
2019-01-02T00:58:52.446Z,1018.59
2019-01-02T00:59:52.500Z,1018.51
2019-01-02T01:00:52.576Z,1018.52
2019-01-02T01:01:52.684Z,1018.38
2019-01-02T01:02:52.792Z,1018.39
2019-01-02T01:03:53.017Z,1018.49
2019-01-02T01:04:53.129Z,1018.47
2019-01-02T01:05:53.451Z,1018.51
2019-01-02T01:06:53.675Z,1018.36
2019-01-02T01:07:54.733Z,1018.38
2019-01-02T01:08:53.992Z,1018.43
2019-01-02T01:09:54.013Z,1018.36
2019-01-02T01:10:54.293Z,1018.50
2019-01-02T01:11:54.170Z,1018.51
2019-01-02T01:12:54.699Z,1018.51
2019-01-02T01:13:54.642Z,1018.55
2019-01-02T01:14:55.170Z,1018.53
2019-01-02T01:15:54.956Z,1018.54
2019-01-02T01:16:55.459Z,1018.62
2019-01-02T01:17:55.206Z,1018.56
2019-01-02T01:18:55.531Z,1018.59
2019-01-02T01:19:55.841Z,1018.65
2019-01-02T01:20:56.113Z,1018.70
2019-01-02T01:21:56.505Z,1018.79
2019-01-02T01:22:57.035Z,1018.81
2019-01-02T01:23:56.852Z,1018.91
2019-01-02T01:24:57.119Z,1018.91
2019-01-02T01:25:57.371Z,1018.97
2019-01-02T01:26:57.686Z,1018.97
2019-01-02T01:27:58.001Z,1018.84
2019-01-02T01:28:58.337Z,1018.90
2019-01-02T01:29:58.625Z,1018.98
2019-01-02T01:30:58.956Z,1018.99
2019-01-02T01:31:59.262Z,1018.95
2019-01-02T01:32:59.982Z,1019.01
2019-01-02T01:33:59.820Z,1019.08
2019-01-02T01:35:00.291Z,1019.06
2019-01-02T01:36:00.976Z,1019.02
2019-01-02T01:37:01.275Z,1019.11
2019-01-02T01:38:01.399Z,1019.11
2019-01-02T01:39:01.257Z,1019.12
2019-01-02T01:40:01.351Z,1019.15
2019-01-02T01:41:01.957Z,1019.16
2019-01-02T01:42:02.014Z,1019.14
2019-01-02T01:43:02.461Z,1019.09
2019-01-02T01:44:02.890Z,1019.03
2019-01-02T01:45:03.103Z,1019.08
2019-01-02T01:46:03.524Z,1019.06
2019-01-02T01:47:04.137Z,1019.14
2019-01-02T01:48:04.350Z,1019.11
2019-01-02T01:49:04.360Z,1019.24
2019-01-02T01:50:04.669Z,1019.19
2019-01-02T01:51:04.886Z,1019.18
2019-01-02T01:52:04.996Z,1019.17
2019-01-02T01:53:05.305Z,1019.14
2019-01-02T01:54:05.721Z,1019.11
2019-01-02T01:55:06.035Z,1019.19
2019-01-02T01:56:06.255Z,1019.10
2019-01-02T01:57:06.557Z,1019.19
2019-01-02T01:58:06.362Z,1019.10
2019-01-02T01:59:06.971Z,1019.14
2019-01-02T02:00:07.076Z,1019.11
2019-01-02T02:01:07.090Z,1019.12
2019-01-02T02:02:07.207Z,1019.11
2019-01-02T02:03:07.182Z,1019.17
2019-01-02T02:04:07.282Z,1019.14
2019-01-02T02:05:07.289Z,1019.13
2019-01-02T02:06:07.292Z,1019.03
2019-01-02T02:07:07.445Z,1018.99
2019-01-02T02:08:07.526Z,1019.01
2019-01-02T02:09:07.398Z,1018.97
2019-01-02T02:10:08.005Z,1019.02
2019-01-02T02:11:08.191Z,1019.04
2019-01-02T02:12:07.953Z,1019.05
2019-01-02T02:13:08.270Z,1019.09
2019-01-02T02:14:08.514Z,1019.14
2019-01-02T02:15:09.087Z,1019.13
2019-01-02T02:16:08.932Z,1019.12
2019-01-02T02:17:09.701Z,1019.00
2019-01-02T02:18:09.764Z,1019.01
2019-01-02T02:19:09.906Z,1019.01
2019-01-02T02:20:09.651Z,1018.99
2019-01-02T02:21:09.734Z,1018.88
2019-01-02T02:22:10.031Z,1018.97
2019-01-02T02:23:10.280Z,1019.09
2019-01-02T02:24:10.641Z,1019.12
2019-01-02T02:25:11.015Z,1019.02
2019-01-02T02:26:11.495Z,1018.98
2019-01-02T02:27:11.828Z,1018.95
2019-01-02T02:28:12.196Z,1018.95
2019-01-02T02:29:12.568Z,1018.90
2019-01-02T02:30:12.853Z,1018.91
2019-01-02T02:31:13.107Z,1018.88
2019-01-02T02:32:13.481Z,1018.95
2019-01-02T02:33:13.787Z,1019.03
2019-01-02T02:34:14.106Z,1019.02
2019-01-02T02:35:14.776Z,1018.96
2019-01-02T02:36:14.726Z,1018.81
2019-01-02T02:37:15.047Z,1018.91
2019-01-02T02:38:15.333Z,1018.89
2019-01-02T02:39:15.662Z,1018.91
2019-01-02T02:40:16.436Z,1019.01
2019-01-02T02:41:16.277Z,1019.05
2019-01-02T02:42:16.923Z,1019.19
2019-01-02T02:43:16.720Z,1019.19
2019-01-02T02:44:17.598Z,1019.29
2019-01-02T02:45:17.688Z,1019.42
2019-01-02T02:46:17.471Z,1019.42
2019-01-02T02:47:17.912Z,1019.30
2019-01-02T02:48:18.972Z,1019.24
2019-01-02T02:49:19.185Z,1019.17
2019-01-02T02:51:19.404Z,1019.07
2019-01-02T02:52:19.826Z,1019.07
2019-01-02T02:53:20.238Z,1018.98
2019-01-02T02:54:20.757Z,1019.00
2019-01-02T02:55:20.762Z,1018.89
2019-01-02T02:56:20.766Z,1019.01
2019-01-02T02:57:20.943Z,1019.03
2019-01-02T02:58:21.175Z,1019.01
2019-01-02T03:00:21.713Z,1019.01
2019-01-02T03:01:21.528Z,1018.98
2019-01-02T03:02:21.635Z,1019.03
2019-01-02T03:03:21.736Z,1018.96
2019-01-02T03:04:22.046Z,1019.09
2019-01-02T03:05:22.047Z,1019.18
2019-01-02T03:06:22.049Z,1019.12
2019-01-02T03:07:22.342Z,1019.19
2019-01-02T03:08:22.407Z,1019.09
2019-01-02T03:09:22.524Z,1019.09
2019-01-02T03:10:22.625Z,1019.11
2019-01-02T03:11:22.754Z,1019.13
2019-01-02T03:12:22.848Z,1019.25
2019-01-02T03:13:22.656Z,1019.22
2019-01-02T03:14:23.331Z,1019.28
2019-01-02T03:15:23.436Z,1019.23
2019-01-02T03:16:23.530Z,1019.37
2019-01-02T03:17:23.709Z,1019.34
2019-01-02T03:18:23.796Z,1019.40
2019-01-02T03:19:23.832Z,1019.27
2019-01-02T03:20:23.860Z,1019.26
2019-01-02T03:21:23.899Z,1019.29
2019-01-02T03:22:23.963Z,1019.32
2019-01-02T03:23:23.796Z,1019.29
2019-01-02T03:24:24.159Z,1019.34
2019-01-02T03:26:24.479Z,1019.23
2019-01-02T03:27:24.719Z,1019.32
2019-01-02T03:28:25.116Z,1019.26
2019-01-02T03:29:25.422Z,1019.32
2019-01-02T03:30:25.728Z,1019.24
2019-01-02T03:31:26.052Z,1019.26
2019-01-02T03:32:26.363Z,1019.25
2019-01-02T03:33:26.939Z,1019.18
2019-01-02T03:34:26.844Z,1019.17
2019-01-02T03:36:27.267Z,1019.15
2019-01-02T03:37:27.648Z,1019.26
2019-01-02T03:38:27.937Z,1019.31
2019-01-02T03:39:28.184Z,1019.36
2019-01-02T03:40:28.563Z,1019.14
2019-01-02T03:41:29.011Z,1019.23
2019-01-02T03:42:29.462Z,1019.23
2019-01-02T03:43:29.814Z,1019.30
2019-01-02T03:44:30.359Z,1019.18
2019-01-02T03:45:30.293Z,1019.14
2019-01-02T03:46:30.775Z,1019.34
2019-01-02T03:47:31.019Z,1019.30
2019-01-02T03:48:31.385Z,1019.33
2019-01-02T03:49:31.831Z,1019.34
2019-01-02T03:50:31.764Z,1019.39
2019-01-02T03:51:32.124Z,1019.36
2019-01-02T03:52:32.459Z,1019.26
2019-01-02T03:53:32.754Z,1019.43
2019-01-02T03:54:33.950Z,1019.34
2019-01-02T03:55:34.148Z,1019.45
2019-01-02T03:56:34.366Z,1019.40
2019-01-02T03:57:34.475Z,1019.36
2019-01-02T03:58:35.023Z,1019.30
2019-01-02T03:59:35.513Z,1019.34
2019-01-02T04:00:35.416Z,1019.26
2019-01-02T04:01:35.791Z,1019.15
2019-01-02T04:02:36.150Z,1019.17
2019-01-02T04:03:36.665Z,1019.16
2019-01-02T04:04:36.330Z,1019.10
2019-01-02T04:05:36.271Z,1019.11
2019-01-02T04:06:36.883Z,1019.06
2019-01-02T04:07:36.996Z,1019.16
2019-01-02T04:08:37.095Z,1019.06
2019-01-02T04:09:37.212Z,1018.94
2019-01-02T04:10:37.530Z,1018.87
2019-01-02T04:11:37.400Z,1018.94
2019-01-02T04:12:37.750Z,1019.00
2019-01-02T04:13:37.970Z,1019.00
2019-01-02T04:14:38.283Z,1019.01
2019-01-02T04:15:38.384Z,1018.99
2019-01-02T04:16:38.488Z,1019.10
2019-01-02T04:17:38.702Z,1019.03
2019-01-02T04:18:38.841Z,1019.00
2019-01-02T04:19:39.144Z,1019.07
2019-01-02T04:20:39.274Z,1019.05
2019-01-02T04:21:39.249Z,1019.21
2019-01-02T04:22:39.537Z,1019.21
2019-01-02T04:23:39.910Z,1019.22
2019-01-02T04:24:40.588Z,1019.23
2019-01-02T04:25:40.530Z,1019.19
2019-01-02T04:26:40.871Z,1019.25
2019-01-02T04:27:41.329Z,1019.18
2019-01-02T04:28:41.793Z,1019.22
2019-01-02T04:29:42.373Z,1019.25
2019-01-02T04:30:42.217Z,1019.22
2019-01-02T04:31:42.517Z,1019.20
2019-01-02T04:32:42.829Z,1019.18
2019-01-02T04:33:43.148Z,1019.32
2019-01-02T04:34:43.600Z,1019.31
2019-01-02T04:35:44.058Z,1019.28
2019-01-02T04:36:44.572Z,1019.33
2019-01-02T04:37:44.402Z,1019.24
2019-01-02T04:38:44.719Z,1019.30
2019-01-02T04:39:45.070Z,1019.28
2019-01-02T04:40:45.496Z,1019.26
2019-01-02T04:41:46.130Z,1019.15
2019-01-02T04:42:45.966Z,1019.29
2019-01-02T04:43:46.317Z,1019.13
2019-01-02T04:44:46.590Z,1019.16
2019-01-02T04:45:46.896Z,1019.26
2019-01-02T04:46:47.250Z,1019.18
2019-01-02T04:47:47.548Z,1019.13
2019-01-02T04:48:47.905Z,1019.11
2019-01-02T04:49:48.941Z,1019.19
2019-01-02T04:50:49.065Z,1018.99
2019-01-02T04:51:49.473Z,1019.19
2019-01-02T04:52:49.992Z,1019.23
2019-01-02T04:53:49.689Z,1019.30
2019-01-02T04:54:49.901Z,1019.19
2019-01-02T04:55:50.121Z,1019.20
2019-01-02T04:56:50.436Z,1019.04
2019-01-02T04:57:50.846Z,1019.07
2019-01-02T04:58:51.163Z,1019.09
2019-01-02T04:59:51.578Z,1019.15
2019-01-02T05:00:51.983Z,1019.03
2019-01-02T05:01:52.092Z,1018.98
2019-01-02T05:02:51.991Z,1019.14
2019-01-02T05:03:52.393Z,1019.16
2019-01-02T05:04:52.560Z,1019.14
2019-01-02T05:05:52.934Z,1019.08
2019-01-02T05:06:53.158Z,1019.17
2019-01-02T05:07:53.258Z,1019.07
2019-01-02T05:08:53.474Z,1018.99
2019-01-02T05:09:53.578Z,1019.14
2019-01-02T05:10:53.675Z,1019.03
2019-01-02T05:11:53.845Z,1019.07
2019-01-02T05:12:54.046Z,1019.00
2019-01-02T05:13:54.488Z,1019.04
2019-01-02T05:15:55.058Z,1019.05
2019-01-02T05:16:54.651Z,1019.01
2019-01-02T05:17:54.490Z,1019.05
2019-01-02T05:18:55.053Z,1019.07
2019-01-02T05:19:55.075Z,1019.04
2019-01-02T05:20:55.432Z,1019.01
2019-01-02T05:21:55.809Z,1018.95
2019-01-02T05:22:56.176Z,1019.03
2019-01-02T05:23:56.644Z,1019.14
2019-01-02T05:24:57.028Z,1019.15
2019-01-02T05:25:57.638Z,1019.06
2019-01-02T05:27:57.795Z,1019.15
2019-01-02T05:28:57.534Z,1019.08
2019-01-02T05:29:57.828Z,1019.19
2019-01-02T05:30:58.213Z,1019.14
2019-01-02T05:31:58.819Z,1019.10
2019-01-02T05:32:58.584Z,1019.10
2019-01-02T05:33:58.889Z,1019.15
2019-01-02T05:34:59.302Z,1019.09
2019-01-02T05:35:59.960Z,1019.12
2019-01-02T05:36:59.899Z,1019.12
2019-01-02T05:38:00.346Z,1019.20
2019-01-02T05:39:00.951Z,1019.15
2019-01-02T05:40:01.327Z,1019.29
2019-01-02T05:41:02.051Z,1019.33
2019-01-02T05:42:01.325Z,1019.34
2019-01-02T05:44:02.277Z,1019.40
2019-01-02T05:45:02.402Z,1019.54
2019-01-02T05:46:02.516Z,1019.50
2019-01-02T05:47:03.054Z,1019.46
2019-01-02T05:48:02.556Z,1019.47
2019-01-02T05:49:03.568Z,1019.52
2019-01-02T05:50:03.649Z,1019.54
2019-01-02T05:51:03.892Z,1019.59
2019-01-02T05:52:03.800Z,1019.57
2019-01-02T05:53:04.410Z,1019.56
2019-01-02T05:54:04.425Z,1019.55
2019-01-02T05:55:04.425Z,1019.57
2019-01-02T05:56:04.696Z,1019.56
2019-01-02T05:57:04.963Z,1019.59
2019-01-02T05:58:04.316Z,1019.56
2019-01-02T05:59:05.475Z,1019.64
2019-01-02T06:00:05.785Z,1019.55
2019-01-02T06:01:05.793Z,1019.46
2019-01-02T06:02:06.115Z,1019.54
2019-01-02T06:03:06.422Z,1019.54
2019-01-02T06:04:06.839Z,1019.43
2019-01-02T06:05:06.940Z,1019.57
2019-01-02T06:06:07.055Z,1019.51
2019-01-02T06:07:07.182Z,1019.51
2019-01-02T06:08:07.157Z,1019.58
2019-01-02T06:09:07.445Z,1019.58
2019-01-02T06:10:07.802Z,1019.63
2019-01-02T06:11:08.115Z,1019.62
2019-01-02T06:12:09.278Z,1019.62
2019-01-02T06:13:08.294Z,1019.64
2019-01-02T06:14:08.426Z,1019.61
2019-01-02T06:15:08.528Z,1019.65
2019-01-02T06:16:08.840Z,1019.59
2019-01-02T06:17:08.709Z,1019.49
2019-01-02T06:18:09.342Z,1019.52
2019-01-02T06:19:09.392Z,1019.62
2019-01-02T06:20:09.696Z,1019.51
2019-01-02T06:21:09.642Z,1019.64
2019-01-02T06:22:10.061Z,1019.48
2019-01-02T06:23:10.651Z,1019.48
2019-01-02T06:24:10.497Z,1019.50
2019-01-02T06:25:11.035Z,1019.68
2019-01-02T06:26:10.798Z,1019.66
2019-01-02T06:27:11.113Z,1019.69
2019-01-02T06:28:11.482Z,1019.68
2019-01-02T06:29:11.763Z,1019.63
2019-01-02T06:30:12.545Z,1019.68
2019-01-02T06:31:12.379Z,1019.64
2019-01-02T06:32:12.697Z,1019.69
2019-01-02T06:33:13.055Z,1019.75
2019-01-02T06:34:13.468Z,1019.67
2019-01-02T06:35:14.394Z,1019.74
2019-01-02T06:36:14.439Z,1019.75
2019-01-02T06:37:14.382Z,1019.71
2019-01-02T06:38:14.806Z,1019.75
2019-01-02T06:39:15.177Z,1019.73
2019-01-02T06:40:15.994Z,1019.66
2019-01-02T06:41:15.819Z,1019.71
2019-01-02T06:42:16.479Z,1019.81
2019-01-02T06:43:16.250Z,1019.91
2019-01-02T06:44:16.588Z,1019.81
2019-01-02T06:45:17.142Z,1019.84
2019-01-02T06:46:17.131Z,1019.91
2019-01-02T06:47:17.773Z,1019.83
2019-01-02T06:48:17.664Z,1019.79
2019-01-02T06:49:18.296Z,1019.83
2019-01-02T06:50:18.714Z,1019.83
2019-01-02T06:51:19.640Z,1019.83
2019-01-02T06:52:19.878Z,1019.81
2019-01-02T06:53:20.175Z,1019.84
2019-01-02T06:54:20.380Z,1019.89
2019-01-02T06:55:20.700Z,1019.90
2019-01-02T06:56:21.105Z,1019.96
2019-01-02T06:57:21.522Z,1019.94
2019-01-02T06:58:21.740Z,1019.94
2019-01-02T06:59:21.947Z,1020.03
2019-01-02T07:00:21.934Z,1019.96
2019-01-02T07:01:22.328Z,1020.01
2019-01-02T07:02:22.352Z,1019.99
2019-01-02T07:03:22.668Z,1019.86
2019-01-02T07:04:22.757Z,1019.97
2019-01-02T07:05:22.875Z,1020.00
2019-01-02T07:06:22.935Z,1020.04
2019-01-02T07:07:23.056Z,1020.04
2019-01-02T07:08:23.335Z,1020.04
2019-01-02T07:09:23.551Z,1020.02
2019-01-02T07:10:23.753Z,1020.03
2019-01-02T07:11:23.922Z,1020.02
2019-01-02T07:12:23.995Z,1020.01
2019-01-02T07:13:24.157Z,1020.02
2019-01-02T07:14:24.077Z,1020.06
2019-01-02T07:15:24.436Z,1020.03
2019-01-02T07:16:24.858Z,1020.04
2019-01-02T07:17:25.152Z,1020.06
2019-01-02T07:18:25.681Z,1019.94
2019-01-02T07:19:25.434Z,1020.07
2019-01-02T07:20:25.690Z,1020.03
2019-01-02T07:21:26.146Z,1020.06
2019-01-02T07:22:26.441Z,1020.03
2019-01-02T07:23:26.766Z,1020.05
2019-01-02T07:24:27.034Z,1020.04
2019-01-02T07:25:27.169Z,1020.16
2019-01-02T07:26:27.689Z,1020.15
2019-01-02T07:27:27.901Z,1020.18
2019-01-02T07:28:27.919Z,1020.21
2019-01-02T07:29:27.768Z,1020.19
2019-01-02T07:30:28.123Z,1020.20
2019-01-02T07:31:28.452Z,1020.27
2019-01-02T07:32:28.750Z,1020.28
2019-01-02T07:33:29.071Z,1020.29
2019-01-02T07:34:29.383Z,1020.36
2019-01-02T07:35:29.587Z,1020.34
2019-01-02T07:36:29.891Z,1020.28
2019-01-02T07:37:30.359Z,1020.36
2019-01-02T07:38:30.591Z,1020.37
2019-01-02T07:39:30.825Z,1020.42
2019-01-02T07:40:30.999Z,1020.46
2019-01-02T07:41:31.491Z,1020.49
2019-01-02T07:42:31.370Z,1020.59
2019-01-02T07:43:31.483Z,1020.57
2019-01-02T07:44:31.810Z,1020.53
2019-01-02T07:45:31.999Z,1020.52
2019-01-02T07:46:32.122Z,1020.56
2019-01-02T07:47:32.231Z,1020.51
2019-01-02T07:48:32.365Z,1020.45
2019-01-02T07:49:32.535Z,1020.52
2019-01-02T07:50:32.769Z,1020.60
2019-01-02T07:51:32.931Z,1020.65
2019-01-02T07:52:33.143Z,1020.68
2019-01-02T07:53:33.867Z,1020.63
2019-01-02T07:54:34.401Z,1020.67
2019-01-02T07:55:34.703Z,1020.67
2019-01-02T07:56:34.811Z,1020.65
2019-01-02T07:57:35.737Z,1020.73
2019-01-02T07:58:35.855Z,1020.80
2019-01-02T07:59:36.271Z,1020.76
2019-01-02T08:00:36.581Z,1020.78
2019-01-02T08:01:36.789Z,1020.75
2019-01-02T08:02:36.485Z,1020.77
2019-01-02T08:03:36.902Z,1020.82
2019-01-02T08:04:36.920Z,1020.86
2019-01-02T08:05:37.204Z,1020.82
2019-01-02T08:06:37.542Z,1020.82
2019-01-02T08:07:37.578Z,1020.84
2019-01-02T08:08:38.027Z,1020.83
2019-01-02T08:09:38.382Z,1020.79
2019-01-02T08:10:38.833Z,1020.89
2019-01-02T08:11:39.373Z,1020.84
2019-01-02T08:12:39.437Z,1020.90
2019-01-02T08:13:40.912Z,1020.86
2019-01-02T08:14:39.737Z,1020.86
2019-01-02T08:15:40.255Z,1020.78
2019-01-02T08:16:40.406Z,1020.85
2019-01-02T08:17:40.783Z,1020.84
2019-01-02T08:18:41.315Z,1020.85
2019-01-02T08:19:41.423Z,1020.86
2019-01-02T08:20:41.491Z,1020.88
2019-01-02T08:21:41.668Z,1020.90
2019-01-02T08:22:42.082Z,1020.83
2019-01-02T08:23:42.179Z,1020.92
2019-01-02T08:24:42.323Z,1020.88
2019-01-02T08:25:42.856Z,1020.89
2019-01-02T08:26:42.945Z,1020.90
2019-01-02T08:27:43.387Z,1020.93
2019-01-02T08:28:43.414Z,1020.86
2019-01-02T08:29:43.682Z,1020.81
2019-01-02T08:30:43.907Z,1020.87
2019-01-02T08:31:43.892Z,1020.83
2019-01-02T08:32:44.101Z,1020.84
2019-01-02T08:33:44.446Z,1020.79
2019-01-02T08:34:44.743Z,1020.87
2019-01-02T08:35:44.951Z,1020.77
2019-01-02T08:36:44.937Z,1020.85
2019-01-02T08:37:45.308Z,1020.92
2019-01-02T08:38:45.260Z,1020.91
2019-01-02T08:39:45.297Z,1020.85
2019-01-02T08:40:45.784Z,1020.86
2019-01-02T08:41:46.135Z,1020.85
2019-01-02T08:42:46.302Z,1020.86
2019-01-02T08:43:46.218Z,1020.85
2019-01-02T08:44:46.697Z,1020.86
2019-01-02T08:45:46.541Z,1020.86
2019-01-02T08:46:46.646Z,1020.84
2019-01-02T08:47:46.939Z,1020.83
2019-01-02T08:48:47.282Z,1020.81
2019-01-02T08:49:47.606Z,1020.80
2019-01-02T08:50:47.821Z,1020.81
2019-01-02T08:51:48.068Z,1020.80
2019-01-02T08:52:49.410Z,1020.77
2019-01-02T08:53:49.311Z,1020.77
2019-01-02T08:54:49.424Z,1020.78
2019-01-02T08:55:49.435Z,1020.79
2019-01-02T08:56:50.047Z,1020.79
2019-01-02T08:57:50.773Z,1020.80
2019-01-02T08:58:50.962Z,1020.80
2019-01-02T08:59:51.193Z,1020.81
2019-01-02T09:00:51.622Z,1020.82
2019-01-02T09:01:51.718Z,1020.82
2019-01-02T09:02:51.524Z,1020.83
2019-01-02T09:03:51.936Z,1020.87
2019-01-02T09:04:52.039Z,1020.88
2019-01-02T09:05:52.156Z,1020.92
2019-01-02T09:06:51.471Z,1020.92
2019-01-02T09:07:52.045Z,1020.92
2019-01-02T09:08:52.251Z,1020.94
2019-01-02T09:09:52.577Z,1020.93
2019-01-02T09:10:52.801Z,1020.93
2019-01-02T09:11:53.218Z,1020.93
2019-01-02T09:12:53.418Z,1020.92
2019-01-02T09:13:53.706Z,1020.93
2019-01-02T09:14:54.166Z,1020.95
2019-01-02T09:15:54.453Z,1020.95
2019-01-02T09:16:54.751Z,1020.98
2019-01-02T09:17:54.726Z,1020.97
2019-01-02T09:18:54.876Z,1021.00
2019-01-02T09:19:55.352Z,1020.99
2019-01-02T09:20:55.340Z,1020.99
2019-01-02T09:21:56.224Z,1021.00
2019-01-02T09:22:56.464Z,1020.99
2019-01-02T09:23:56.142Z,1020.98
2019-01-02T09:24:56.533Z,1020.98
2019-01-02T09:25:57.023Z,1020.97
2019-01-02T09:26:57.152Z,1020.98
2019-01-02T09:27:57.295Z,1020.96
2019-01-02T09:28:57.781Z,1020.97
2019-01-02T09:29:58.250Z,1021.00
2019-01-02T09:30:58.307Z,1020.99
2019-01-02T09:31:58.427Z,1020.99
2019-01-02T09:32:58.643Z,1020.98
2019-01-02T09:33:58.684Z,1020.99
2019-01-02T09:34:58.753Z,1021.01
2019-01-02T09:35:58.852Z,1021.02
2019-01-02T09:36:59.082Z,1021.03
2019-01-02T09:37:59.709Z,1021.03
2019-01-02T09:38:59.292Z,1021.04
2019-01-02T09:40:00.031Z,1021.04
2019-01-02T09:40:59.689Z,1021.03
2019-01-02T09:42:00.033Z,1021.03
2019-01-02T09:43:00.045Z,1021.03
2019-01-02T09:44:00.221Z,1021.03
2019-01-02T09:45:00.412Z,1021.03
2019-01-02T09:46:01.231Z,1021.05
2019-01-02T09:47:01.158Z,1021.07
2019-01-02T09:48:01.630Z,1021.09
2019-01-02T09:49:02.333Z,1021.12
2019-01-02T09:50:02.286Z,1021.13
2019-01-02T09:51:02.748Z,1021.16
2019-01-02T09:52:03.227Z,1021.20
2019-01-02T09:53:03.520Z,1021.23
2019-01-02T09:54:04.450Z,1021.24
2019-01-02T09:55:03.641Z,1021.24
2019-01-02T09:56:04.840Z,1021.24
2019-01-02T09:57:04.373Z,1021.24
2019-01-02T09:58:04.779Z,1021.26
2019-01-02T09:59:05.400Z,1021.27
2019-01-02T10:00:05.716Z,1021.28
2019-01-02T10:01:05.643Z,1021.28
2019-01-02T10:02:06.155Z,1021.28
2019-01-02T10:03:06.671Z,1021.26
2019-01-02T10:04:06.667Z,1021.29
2019-01-02T10:05:06.835Z,1021.31
2019-01-02T10:06:06.989Z,1021.34
2019-01-02T10:08:07.057Z,1021.35
2019-01-02T10:09:07.205Z,1021.37
2019-01-02T10:10:07.186Z,1021.35
2019-01-02T10:11:07.388Z,1021.36
2019-01-02T10:12:07.447Z,1021.37
2019-01-02T10:13:07.500Z,1021.35
2019-01-02T10:14:07.549Z,1021.31
2019-01-02T10:15:08.695Z,1021.29
2019-01-02T10:16:08.279Z,1021.31
2019-01-02T10:17:08.486Z,1021.34
2019-01-02T10:18:09.054Z,1021.34
2019-01-02T10:19:09.279Z,1021.36
2019-01-02T10:20:09.183Z,1021.39
2019-01-02T10:21:09.391Z,1021.43
2019-01-02T10:22:09.521Z,1021.44
2019-01-02T10:23:09.743Z,1021.46
2019-01-02T10:24:10.549Z,1021.48
2019-01-02T10:25:10.492Z,1021.49
2019-01-02T10:26:10.714Z,1021.48
2019-01-02T10:27:10.761Z,1021.48
2019-01-02T10:28:11.094Z,1021.50
2019-01-02T10:29:11.107Z,1021.49
2019-01-02T10:31:11.285Z,1021.50
2019-01-02T10:32:11.405Z,1021.52
2019-01-02T10:33:11.506Z,1021.55
2019-01-02T10:34:11.724Z,1021.54
2019-01-02T10:35:11.996Z,1021.56
2019-01-02T10:36:12.175Z,1021.54
2019-01-02T10:37:12.285Z,1021.51
2019-01-02T10:38:12.362Z,1021.50
2019-01-02T10:39:12.595Z,1021.52
2019-01-02T10:40:12.941Z,1021.55
2019-01-02T10:41:13.368Z,1021.55
2019-01-02T10:42:13.294Z,1021.56
2019-01-02T10:43:13.211Z,1021.55
2019-01-02T10:44:13.697Z,1021.55
2019-01-02T10:45:14.625Z,1021.55
2019-01-02T10:46:14.243Z,1021.58
2019-01-02T10:47:13.925Z,1021.59
2019-01-02T10:48:14.364Z,1021.60
2019-01-02T10:49:14.446Z,1021.60
2019-01-02T10:50:15.470Z,1021.61
2019-01-02T10:51:15.102Z,1021.64
2019-01-02T10:52:15.211Z,1021.64
2019-01-02T10:53:15.288Z,1021.66
2019-01-02T10:54:15.747Z,1021.69
2019-01-02T10:55:16.237Z,1021.69
2019-01-02T10:56:16.362Z,1021.69
2019-01-02T10:57:16.598Z,1021.71
2019-01-02T10:58:16.918Z,1021.71
2019-01-02T10:59:17.054Z,1021.69
2019-01-02T11:00:18.068Z,1021.68
2019-01-02T11:01:17.224Z,1021.66
2019-01-02T11:02:17.384Z,1021.66
2019-01-02T11:03:17.771Z,1021.64
2019-01-02T11:04:18.232Z,1021.62
2019-01-02T11:05:19.158Z,1021.61
2019-01-02T11:06:19.681Z,1021.59
2019-01-02T11:07:20.292Z,1021.58
2019-01-02T11:08:20.408Z,1021.57
2019-01-02T11:09:21.028Z,1021.56
2019-01-02T11:10:20.821Z,1021.56
2019-01-02T11:11:21.032Z,1021.55
2019-01-02T11:12:21.241Z,1021.55
2019-01-02T11:13:21.389Z,1021.53
2019-01-02T11:14:21.462Z,1021.49
2019-01-02T11:15:21.973Z,1021.52
2019-01-02T11:16:22.053Z,1021.53
2019-01-02T11:17:22.513Z,1021.56
2019-01-02T11:18:22.273Z,1021.55
2019-01-02T11:19:22.633Z,1021.56
2019-01-02T11:20:22.730Z,1021.57
2019-01-02T11:21:23.126Z,1021.58
2019-01-02T11:22:23.366Z,1021.59
2019-01-02T11:23:24.011Z,1021.59
2019-01-02T11:24:24.052Z,1021.59
2019-01-02T11:25:24.099Z,1021.59
2019-01-02T11:26:24.201Z,1021.57
2019-01-02T11:27:24.610Z,1021.56
2019-01-02T11:28:25.041Z,1021.58
2019-01-02T11:29:25.124Z,1021.57
2019-01-02T11:30:25.505Z,1021.57
2019-01-02T11:31:26.351Z,1021.59
2019-01-02T11:32:25.982Z,1021.57
2019-01-02T11:33:26.200Z,1021.53
2019-01-02T11:34:26.395Z,1021.53
2019-01-02T11:35:26.675Z,1021.53
2019-01-02T11:36:27.017Z,1021.52
2019-01-02T11:37:27.183Z,1021.51
2019-01-02T11:38:27.295Z,1021.50
2019-01-02T11:39:27.744Z,1021.54
2019-01-02T11:40:27.814Z,1021.53
2019-01-02T11:41:27.923Z,1021.53
2019-01-02T11:42:28.051Z,1021.55
2019-01-02T11:43:28.401Z,1021.55
2019-01-02T11:44:28.564Z,1021.56
2019-01-02T11:45:28.674Z,1021.55
2019-01-02T11:46:29.032Z,1021.55
2019-01-02T11:47:29.445Z,1021.55
2019-01-02T11:48:29.839Z,1021.51
2019-01-02T11:49:30.162Z,1021.55
2019-01-02T11:50:30.442Z,1021.55
2019-01-02T11:51:30.900Z,1021.53
2019-01-02T11:52:31.733Z,1021.51
2019-01-02T11:53:31.596Z,1021.48
2019-01-02T11:54:31.904Z,1021.46
2019-01-02T11:55:32.175Z,1021.47
2019-01-02T11:56:32.534Z,1021.45
2019-01-02T11:57:32.792Z,1021.46
2019-01-02T11:58:33.732Z,1021.45
2019-01-02T11:59:34.259Z,1021.44
2019-01-02T12:00:35.191Z,1021.43
2019-01-02T12:01:35.699Z,1021.44
2019-01-02T12:02:35.804Z,1021.41
2019-01-02T12:03:35.913Z,1021.43
2019-01-02T12:04:35.919Z,1021.44
2019-01-02T12:05:36.657Z,1021.43
2019-01-02T12:06:36.651Z,1021.42
2019-01-02T12:07:37.272Z,1021.45
2019-01-02T12:08:37.193Z,1021.42
2019-01-02T12:09:37.343Z,1021.43
2019-01-02T12:10:37.443Z,1021.43
2019-01-02T12:11:38.259Z,1021.43
2019-01-02T12:12:38.282Z,1021.43
2019-01-02T12:13:38.949Z,1021.41
2019-01-02T12:14:39.320Z,1021.40
2019-01-02T12:15:39.062Z,1021.38
2019-01-02T12:16:39.219Z,1021.39
2019-01-02T12:17:39.259Z,1021.40
2019-01-02T12:18:39.316Z,1021.38
2019-01-02T12:19:39.370Z,1021.40